ADDS METAR Data INFO
IDs: Format: Raw Decoded Include TAF

Data at: 0856 UTC 19 Jun 2018

METAR for:KGNV (Gainesville Rgnl, FL, US)
Text:KGNV 190853Z AUTO 00000KT 9SM CLR 24/22 A3006 RMK AO2 SLP176 T02390217 55005
Temperature: 23.9°C ( 75°F)
Dewpoint: 21.7°C ( 71°F) [RH = 88%]
Pressure (altimeter):30.06 inches Hg (1018.0 mb) [Sea level pressure: 1017.6 mb]
Winds:calm
Visibility: 9 sm ( 14 km)
Ceiling:at least 12,000 feet AGL
Clouds:sky clear below 12,000 feet AGL
QC Flag:automated observation with no human augmentation